Time;durP1;ratioP1;P1;durP2;ratioP2;P2;SDS_P1;SDS_P2;PMS_P1;PMS_P2;Temp;Humidity;BMP_temperature;BMP_pressure;BME280_temperature;BME280_humidity;BME280_pressure;Samples;Min_cycle;Max_cycle;Signal;HPM_P1;HPM_P2
2023/03/17 00:01:53;;;;;;;3.63;0.98;;;25.50;48.10;;;;;;5111549;28;20072;-62
2023/03/17 00:04:22;;;;;;;1.33;0.65;;;25.50;47.00;;;;;;5110296;28;20472;-62
2023/03/17 00:06:49;;;;;;;1.83;0.65;;;25.30;46.00;;;;;;5109091;28;20554;-60
2023/03/17 00:09:17;;;;;;;2.42;0.80;;;25.10;46.50;;;;;;5110953;28;20119;-63
2023/03/17 00:11:45;;;;;;;3.50;1.02;;;25.00;47.80;;;;;;5110092;28;20201;-61
2023/03/17 00:14:12;;;;;;;2.63;0.90;;;25.00;48.40;;;;;;5109245;28;20531;-62
2023/03/17 00:16:44;;;;;;;1.63;1.00;;;25.00;47.90;;;;;;5107302;28;20090;-62
2023/03/17 00:19:20;;;;;;;2.30;1.00;;;24.90;47.30;;;;;;5105801;28;20067;-62
2023/03/17 00:21:47;;;;;;;1.20;1.00;;;24.90;47.40;;;;;;5109631;28;20434;-61
2023/03/17 00:24:14;;;;;;;3.70;0.88;;;24.90;47.00;;;;;;5110247;28;20084;-59
2023/03/17 00:26:41;;;;;;;3.05;0.80;;;24.80;47.20;;;;;;5110096;28;20118;-62
2023/03/17 00:29:07;;;;;;;3.08;0.70;;;24.70;47.50;;;;;;5108360;28;20535;-62
2023/03/17 00:31:35;;;;;;;2.63;0.93;;;24.70;46.80;;;;;;5110973;28;20069;-62
2023/03/17 00:34:01;;;;;;;2.53;0.70;;;24.70;47.80;;;;;;5110982;28;20067;-61
2023/03/17 00:36:29;;;;;;;1.60;0.80;;;24.70;47.10;;;;;;5107749;28;20552;-61
2023/03/17 00:38:57;;;;;;;2.13;0.90;;;24.60;46.10;;;;;;5105675;28;20080;-61
2023/03/17 00:41:23;;;;;;;6.22;1.00;;;24.50;45.90;;;;;;5107112;28;20066;-60
2023/03/17 00:43:50;;;;;;;3.97;0.93;;;24.50;45.80;;;;;;5109160;28;20146;-61
2023/03/17 00:46:26;;;;;;;1.45;0.90;;;24.50;47.00;;;;;;5109770;28;20066;-60
2023/03/17 00:48:53;;;;;;;2.92;0.85;;;24.40;46.00;;;;;;5108218;28;20182;-61
2023/03/17 00:51:20;;;;;;;2.55;1.00;;;24.40;45.60;;;;;;5109528;28;20530;-59
2023/03/17 00:53:46;;;;;;;2.70;0.82;;;24.30;45.60;;;;;;5110172;28;20066;-62
2023/03/17 00:56:18;;;;;;;2.45;0.80;;;24.30;46.10;;;;;;5109491;28;20439;-62
2023/03/17 00:58:45;;;;;;;5.18;1.95;;;24.40;46.50;;;;;;5109528;28;20062;-62
2023/03/17 01:01:12;;;;;;;3.15;1.48;;;24.30;45.90;;;;;;5109451;28;20471;-64
2023/03/17 01:03:39;;;;;;;3.65;1.20;;;24.30;45.80;;;;;;5107678;28;20426;-63
2023/03/17 01:06:09;;;;;;;2.65;0.88;;;24.20;45.90;;;;;;5108485;28;20545;-61
2023/03/17 01:08:37;;;;;;;2.58;1.00;;;24.20;46.30;;;;;;5108195;28;20063;-62
2023/03/17 01:11:04;;;;;;;4.20;1.20;;;24.20;46.30;;;;;;5109903;28;20114;-60
2023/03/17 01:13:30;;;;;;;3.03;1.88;;;24.20;46.30;;;;;;5107771;28;20071;-61
2023/03/17 01:15:56;;;;;;;3.17;1.30;;;24.10;46.10;;;;;;5110119;28;20065;-61
2023/03/17 01:18:23;;;;;;;1.40;1.00;;;24.10;47.00;;;;;;5108899;28;20090;-62
2023/03/17 01:20:50;;;;;;;7.45;1.50;;;24.00;46.40;;;;;;5105723;28;20151;-61
2023/03/17 01:23:17;;;;;;;2.25;1.10;;;23.90;45.20;;;;;;5108639;28;20067;-62
2023/03/17 01:25:44;;;;;;;2.55;1.00;;;23.90;45.30;;;;;;5108095;28;20063;-62
2023/03/17 01:28:15;;;;;;;1.80;0.82;;;23.80;47.00;;;;;;5109755;28;20548;-61
2023/03/17 01:30:42;;;;;;;2.38;1.00;;;23.70;46.60;;;;;;5109000;28;20071;-61
2023/03/17 01:33:10;;;;;;;1.20;0.98;;;23.70;48.20;;;;;;5109003;28;20070;-59
2023/03/17 01:35:38;;;;;;;6.30;1.48;;;23.50;48.90;;;;;;5108419;28;20092;-60
2023/03/17 01:38:05;;;;;;;5.82;1.58;;;23.40;48.40;;;;;;5107547;27;20097;-61
2023/03/17 01:40:37;;;;;;;3.40;1.20;;;23.30;48.80;;;;;;5108746;28;20594;-62
2023/03/17 01:43:28;;;;;;;2.63;1.17;;;23.10;48.80;;;;;;5108038;28;20128;-62
2023/03/17 01:46:16;;;;;;;1.92;0.90;;;23.00;49.20;;;;;;5107231;28;20097;-61
2023/03/17 01:48:54;;;;;;;2.60;0.90;;;22.90;49.10;;;;;;5104792;28;20155;-62
2023/03/17 01:51:24;;;;;;;5.25;1.33;;;22.80;49.70;;;;;;5107094;28;20106;-63
2023/03/17 01:53:52;;;;;;;3.10;1.10;;;22.80;49.70;;;;;;5107986;28;20097;-61
2023/03/17 01:56:19;;;;;;;2.03;1.20;;;22.70;49.70;;;;;;5108171;28;20159;-61
2023/03/17 01:58:50;;;;;;;3.47;1.40;;;22.60;50.90;;;;;;5107597;28;20063;-61
2023/03/17 02:01:16;;;;;;;4.80;1.40;;;22.50;49.90;;;;;;5108626;28;20063;-60
2023/03/17 02:03:44;;;;;;;7.95;1.80;;;22.40;50.70;;;;;;5108176;28;20106;-62
2023/03/17 02:06:11;;;;;;;5.47;2.60;;;22.30;50.40;;;;;;5107791;28;20098;-60
2023/03/17 02:08:38;;;;;;;6.45;2.30;;;22.10;50.50;;;;;;5108478;28;20122;-62
2023/03/17 02:11:05;;;;;;;9.07;3.22;;;22.10;50.50;;;;;;5107536;28;20144;-62
2023/03/17 02:13:32;;;;;;;11.15;2.90;;;22.00;50.70;;;;;;5107001;28;20477;-62
2023/03/17 02:15:58;;;;;;;7.88;3.00;;;21.90;50.80;;;;;;5108510;28;20467;-62
2023/03/17 02:18:25;;;;;;;7.45;2.60;;;21.80;52.80;;;;;;5108511;28;20114;-61
2023/03/17 02:21:09;;;;;;;8.50;2.97;;;21.80;51.90;;;;;;5103209;28;20110;-62
2023/03/17 02:23:36;;;;;;;9.23;2.58;;;21.70;51.80;;;;;;5100963;28;20558;-64
2023/03/17 02:26:03;;;;;;;6.50;2.33;;;21.60;52.20;;;;;;5106796;28;20093;-64
2023/03/17 02:28:30;;;;;;;17.95;5.50;;;21.50;52.60;;;;;;5107903;28;20511;-63
2023/03/17 02:30:57;;;;;;;23.65;8.30;;;21.50;53.20;;;;;;5083886;28;20162;-65
2023/03/17 02:33:24;;;;;;;19.38;7.45;;;21.50;53.70;;;;;;5108693;28;20060;-64
2023/03/17 02:35:50;;;;;;;66.32;40.45;;;21.40;54.40;;;;;;5107999;28;20078;-61
2023/03/17 02:38:17;;;;;;;86.82;61.13;;;21.30;55.50;;;;;;5102787;28;20127;-63
2023/03/17 02:40:43;;;;;;;43.33;26.83;;;21.30;55.10;;;;;;5101762;28;20523;-64
2023/03/17 02:43:09;;;;;;;17.83;6.68;;;21.20;54.00;;;;;;5107285;28;20071;-63
2023/03/17 02:45:36;;;;;;;23.20;4.82;;;21.20;55.50;;;;;;5106316;28;20202;-64
2023/03/17 02:48:02;;;;;;;23.15;4.90;;;21.10;56.20;;;;;;5103906;28;20067;-63
2023/03/17 02:50:30;;;;;;;21.20;5.05;;;21.00;56.70;;;;;;5107874;28;20569;-62
2023/03/17 02:52:57;;;;;;;23.30;5.15;;;21.00;56.90;;;;;;5107041;28;20534;-64
2023/03/17 02:55:23;;;;;;;29.20;6.00;;;20.90;57.10;;;;;;5107866;28;20082;-63
2023/03/17 02:57:50;;;;;;;25.48;5.35;;;20.80;57.40;;;;;;5104779;28;20561;-63
2023/03/17 03:00:18;;;;;;;27.17;4.47;;;20.70;58.20;;;;;;5107197;28;20472;-62
2023/03/17 03:02:44;;;;;;;34.20;5.88;;;20.70;57.50;;;;;;5108554;28;20090;-61
2023/03/17 03:05:11;;;;;;;34.08;5.40;;;20.70;57.70;;;;;;5108203;28;20225;-62
2023/03/17 03:07:37;;;;;;;21.02;4.78;;;20.60;58.50;;;;;;5098580;28;20434;-62
2023/03/17 03:10:05;;;;;;;22.27;5.13;;;20.60;58.90;;;;;;5106893;28;20068;-61
2023/03/17 03:12:32;;;;;;;26.15;5.90;;;20.50;59.10;;;;;;5107009;28;20107;-63
2023/03/17 03:14:59;;;;;;;28.75;6.00;;;20.40;59.00;;;;;;5106182;28;20566;-62
2023/03/17 03:17:26;;;;;;;21.05;5.00;;;20.40;58.80;;;;;;5107189;28;20133;-63
2023/03/17 03:19:52;;;;;;;15.27;5.50;;;20.30;59.30;;;;;;5107550;28;20079;-61
2023/03/17 03:22:19;;;;;;;20.30;5.95;;;20.30;59.90;;;;;;5103885;28;20460;-62
2023/03/17 03:24:45;;;;;;;17.08;5.47;;;20.30;59.80;;;;;;5107089;28;20572;-62
2023/03/17 03:27:12;;;;;;;29.70;5.75;;;20.20;59.90;;;;;;5106381;28;20078;-61
2023/03/17 03:29:38;;;;;;;25.77;5.05;;;20.20;59.60;;;;;;5106100;28;20071;-61
2023/03/17 03:32:05;;;;;;;23.65;4.80;;;20.10;59.40;;;;;;5107760;28;20083;-61
2023/03/17 03:34:31;;;;;;;28.42;5.90;;;20.10;59.50;;;;;;5110995;28;20071;-61
2023/03/17 03:36:58;;;;;;;21.02;5.20;;;20.00;60.10;;;;;;5102946;28;20181;-62
2023/03/17 03:39:25;;;;;;;22.15;5.03;;;20.00;60.70;;;;;;5110870;28;20146;-62
2023/03/17 03:41:56;;;;;;;21.02;5.45;;;19.90;61.30;;;;;;5111098;28;20135;-63
2023/03/17 03:44:22;;;;;;;24.50;6.25;;;19.90;61.50;;;;;;5104203;28;20071;-62
2023/03/17 03:46:49;;;;;;;26.98;5.72;;;19.90;62.00;;;;;;5106292;28;20063;-61
2023/03/17 03:49:15;;;;;;;27.65;6.03;;;19.80;61.70;;;;;;5107401;28;20067;-63
2023/03/17 03:51:42;;;;;;;19.83;6.75;;;19.80;61.50;;;;;;5107336;28;20071;-61
2023/03/17 03:54:08;;;;;;;23.48;6.10;;;19.70;61.50;;;;;;5110022;28;20075;-59
2023/03/17 03:56:35;;;;;;;27.90;7.10;;;19.70;62.50;;;;;;5105632;28;20852;-61
2023/03/17 03:59:01;;;;;;;52.10;8.02;;;19.60;61.50;;;;;;5104615;28;20063;-60
2023/03/17 04:01:27;;;;;;;25.25;6.32;;;19.60;62.10;;;;;;5108062;27;20568;-62
2023/03/17 04:03:54;;;;;;;19.02;6.00;;;19.50;62.50;;;;;;5111193;28;20136;-62
2023/03/17 04:06:20;;;;;;;18.52;6.80;;;19.50;62.50;;;;;;5109001;28;20067;-62
2023/03/17 04:08:47;;;;;;;21.02;5.90;;;19.50;63.00;;;;;;5105887;28;20074;-61
2023/03/17 04:11:13;;;;;;;24.10;6.60;;;19.50;63.70;;;;;;5106773;28;20168;-64
2023/03/17 04:13:39;;;;;;;21.05;6.53;;;19.40;63.80;;;;;;5080458;28;20078;-62
2023/03/17 04:16:06;;;;;;;31.02;7.25;;;19.40;63.80;;;;;;5106908;28;20079;-62
2023/03/17 04:18:33;;;;;;;24.98;6.38;;;19.30;63.20;;;;;;5110439;28;20071;-60
2023/03/17 04:20:59;;;;;;;26.83;6.47;;;19.30;64.00;;;;;;5110173;28;20086;-63
2023/03/17 04:23:26;;;;;;;19.95;6.22;;;19.30;64.10;;;;;;5106827;28;20543;-61
2023/03/17 04:25:53;;;;;;;30.17;7.72;;;19.30;64.20;;;;;;5109432;28;20079;-62
2023/03/17 04:28:21;;;;;;;32.58;7.50;;;19.30;64.60;;;;;;5109447;28;20073;-61
2023/03/17 04:30:47;;;;;;;30.98;6.72;;;19.30;63.40;;;;;;5109561;28;20063;-62
2023/03/17 04:33:14;;;;;;;25.67;6.25;;;19.30;63.40;;;;;;5110742;28;20083;-62
2023/03/17 04:35:40;;;;;;;30.90;6.93;;;19.20;64.80;;;;;;5109323;28;20075;-62
2023/03/17 04:38:07;;;;;;;32.28;6.30;;;19.20;64.90;;;;;;5109574;28;20098;-62
2023/03/17 04:40:34;;;;;;;36.30;7.10;;;19.10;64.40;;;;;;5110761;28;20157;-61
2023/03/17 04:43:00;;;;;;;37.58;7.28;;;19.10;64.30;;;;;;5106887;28;20123;-62
2023/03/17 04:45:27;;;;;;;41.55;7.15;;;19.10;64.90;;;;;;5109275;28;20476;-64
2023/03/17 04:47:53;;;;;;;42.60;8.07;;;19.00;65.00;;;;;;5109006;28;20577;-61
2023/03/17 04:50:20;;;;;;;43.22;8.13;;;19.00;65.00;;;;;;5108257;28;20079;-63
2023/03/17 04:52:46;;;;;;;35.80;8.82;;;19.00;65.10;;;;;;5105378;28;20514;-60
2023/03/17 04:55:13;;;;;;;50.25;10.45;;;19.00;66.90;;;;;;5109241;28;20114;-61
2023/03/17 04:57:39;;;;;;;47.47;10.35;;;18.90;63.40;;;;;;5109705;28;20150;-61
2023/03/17 05:00:08;;;;;;;60.55;10.98;;;18.90;62.50;;;;;;5110231;28;20071;-62
2023/03/17 05:02:34;;;;;;;52.13;13.13;;;19.00;61.00;;;;;;5111680;28;20569;-63
2023/03/17 05:05:01;;;;;;;60.65;14.30;;;19.10;61.80;;;;;;5093613;28;20071;-63
2023/03/17 05:07:27;;;;;;;54.70;13.95;;;19.20;62.30;;;;;;5086819;28;20454;-62
2023/03/17 05:09:54;;;;;;;65.13;14.38;;;19.10;62.60;;;;;;5110515;28;20153;-61
2023/03/17 05:12:20;;;;;;;65.38;13.23;;;19.10;63.60;;;;;;5110501;28;20118;-64
2023/03/17 05:14:47;;;;;;;48.65;12.85;;;19.10;62.70;;;;;;5110567;28;20067;-62
2023/03/17 05:17:13;;;;;;;44.15;11.32;;;19.10;61.50;;;;;;5110010;28;20128;-61
2023/03/17 05:19:40;;;;;;;43.15;9.75;;;19.10;61.00;;;;;;5104376;28;20139;-62
2023/03/17 05:22:06;;;;;;;34.60;6.90;;;19.10;61.20;;;;;;5109344;28;20544;-63
2023/03/17 05:24:33;;;;;;;24.83;6.00;;;19.10;59.10;;;;;;5107740;28;20098;-63
2023/03/17 05:26:59;;;;;;;16.13;4.65;;;19.00;59.00;;;;;;5110368;28;20118;-62
2023/03/17 05:29:26;;;;;;;13.20;4.13;;;19.00;58.40;;;;;;5081363;28;20087;-61
2023/03/17 05:31:53;;;;;;;12.77;4.18;;;19.00;57.60;;;;;;5076754;28;20079;-62
2023/03/17 05:34:19;;;;;;;12.18;4.78;;;19.00;58.30;;;;;;5109793;28;20071;-62
2023/03/17 05:36:45;;;;;;;15.98;5.40;;;19.10;57.70;;;;;;5109383;28;20454;-63
2023/03/17 05:39:12;;;;;;;15.38;5.07;;;19.00;57.70;;;;;;5107535;28;20063;-64
2023/03/17 05:41:38;;;;;;;14.18;4.65;;;19.00;57.40;;;;;;5106683;28;20075;-61
2023/03/17 05:44:05;;;;;;;20.20;4.75;;;19.10;58.10;;;;;;5106064;28;20644;-62
2023/03/17 05:46:31;;;;;;;17.52;5.15;;;19.50;59.00;;;;;;5105560;28;20075;-61
2023/03/17 05:48:58;;;;;;;15.02;7.20;;;19.90;58.30;;;;;;5108643;28;20075;-61
2023/03/17 05:51:24;;;;;;;15.65;7.18;;;20.20;56.90;;;;;;5107437;28;20505;-64
2023/03/17 05:53:51;;;;;;;10.32;3.70;;;20.20;57.20;;;;;;5106855;28;20066;-63
2023/03/17 05:56:17;;;;;;;9.30;3.38;;;20.20;56.70;;;;;;5108557;28;20078;-63
2023/03/17 05:58:43;;;;;;;10.45;5.03;;;20.10;56.60;;;;;;5109089;28;20538;-67
2023/03/17 06:01:10;;;;;;;15.80;7.47;;;20.10;56.70;;;;;;5105245;28;20148;-63
2023/03/17 06:03:37;;;;;;;16.02;8.52;;;20.00;57.00;;;;;;5108545;28;20494;-63
2023/03/17 06:06:04;;;;;;;10.02;4.35;;;20.10;57.50;;;;;;5078055;28;20071;-63
2023/03/17 06:08:31;;;;;;;10.63;3.15;;;20.00;57.40;;;;;;5109244;28;20071;-64
2023/03/17 06:10:57;;;;;;;6.45;2.65;;;19.90;57.90;;;;;;5108278;28;20440;-61
2023/03/17 06:13:24;;;;;;;7.60;2.58;;;19.80;58.30;;;;;;5108510;28;20122;-62
2023/03/17 06:15:51;;;;;;;8.13;2.40;;;19.80;58.60;;;;;;5108607;28;20082;-64
2023/03/17 06:18:18;;;;;;;7.22;2.03;;;19.90;58.60;;;;;;5106669;28;20080;-63
2023/03/17 06:20:45;;;;;;;8.57;2.92;;;19.90;59.10;;;;;;5108104;28;20083;-64
2023/03/17 06:23:11;;;;;;;16.52;4.15;;;20.10;59.00;;;;;;5102622;28;20067;-60
2023/03/17 06:25:38;;;;;;;12.18;3.85;;;19.70;58.90;;;;;;5105417;28;20114;-62
2023/03/17 06:28:05;;;;;;;15.13;3.88;;;19.70;59.20;;;;;;5107994;28;20079;-60
2023/03/17 06:30:33;;;;;;;9.10;3.70;;;19.80;59.40;;;;;;5107040;28;20520;-62
2023/03/17 06:33:00;;;;;;;12.65;3.85;;;19.80;60.00;;;;;;5108658;28;20114;-62
2023/03/17 06:35:27;;;;;;;16.30;3.75;;;19.70;59.80;;;;;;5091609;28;20566;-61
2023/03/17 06:37:53;;;;;;;13.68;4.22;;;19.70;59.90;;;;;;5106854;28;20086;-64
2023/03/17 06:40:20;;;;;;;14.00;4.72;;;19.60;59.90;;;;;;5107970;28;20067;-64
2023/03/17 06:42:46;;;;;;;20.38;5.40;;;19.70;59.50;;;;;;5107455;28;20082;-64
2023/03/17 06:45:13;;;;;;;13.25;5.43;;;19.50;60.40;;;;;;5108194;28;20113;-62
2023/03/17 06:47:39;;;;;;;18.65;4.70;;;19.40;60.40;;;;;;5108037;28;20070;-61
2023/03/17 06:50:11;;;;;;;13.27;3.10;;;19.20;60.00;;;;;;5106988;28;20091;-62
2023/03/17 06:52:38;;;;;;;8.60;2.85;;;19.20;60.30;;;;;;5107079;28;20063;-62
2023/03/17 06:55:06;;;;;;;14.80;3.10;;;19.20;60.50;;;;;;5108398;28;20078;-62
2023/03/17 06:57:32;;;;;;;12.18;3.28;;;19.10;60.40;;;;;;5100532;28;20408;-62
2023/03/17 06:59:59;;;;;;;11.60;2.72;;;18.90;60.80;;;;;;5108224;28;20079;-62
2023/03/17 07:02:26;;;;;;;13.38;3.17;;;18.80;61.30;;;;;;5106296;28;20091;-62
2023/03/17 07:04:52;;;;;;;14.13;3.30;;;18.70;61.30;;;;;;5108265;28;20429;-62
2023/03/17 07:07:19;;;;;;;9.85;3.08;;;18.80;61.40;;;;;;5108447;28;20100;-61
2023/03/17 07:09:46;;;;;;;9.90;2.72;;;18.90;61.20;;;;;;5112109;28;20070;-61
2023/03/17 07:12:13;;;;;;;8.07;2.83;;;19.00;60.60;;;;;;5110290;28;20155;-62
2023/03/17 07:14:40;;;;;;;8.35;3.08;;;19.00;61.10;;;;;;5111213;28;20079;-62
2023/03/17 07:17:06;;;;;;;9.80;3.65;;;19.00;61.30;;;;;;5106954;28;20083;-61
2023/03/17 07:19:33;;;;;;;16.67;4.93;;;18.80;60.70;;;;;;5111613;28;20564;-61
2023/03/17 07:22:00;;;;;;;19.67;6.25;;;18.60;60.70;;;;;;5110363;28;20144;-61
2023/03/17 07:24:26;;;;;;;19.90;6.25;;;18.60;60.80;;;;;;5110606;28;20139;-61
2023/03/17 07:26:53;;;;;;;20.45;7.10;;;18.50;61.80;;;;;;5112041;28;20807;-61
2023/03/17 07:29:21;;;;;;;22.88;6.57;;;18.10;61.60;;;;;;5111293;28;20079;-61
2023/03/17 07:31:48;;;;;;;17.35;5.90;;;17.80;62.50;;;;;;5111749;28;20078;-61
2023/03/17 07:34:15;;;;;;;14.18;4.18;;;17.70;62.90;;;;;;5103955;28;20162;-60
2023/03/17 07:36:42;;;;;;;13.48;3.97;;;17.60;63.30;;;;;;5111406;28;20139;-61
2023/03/17 07:39:09;;;;;;;16.95;4.25;;;17.90;63.70;;;;;;5110896;28;20069;-61
2023/03/17 07:41:36;;;;;;;11.13;3.45;;;17.60;63.90;;;;;;5105478;28;20093;-61
2023/03/17 07:44:02;;;;;;;14.65;3.60;;;17.60;64.70;;;;;;5109097;28;20066;-61
2023/03/17 07:46:29;;;;;;;13.88;3.65;;;17.60;65.20;;;;;;5108783;28;20497;-61
2023/03/17 07:48:56;;;;;;;9.80;3.63;;;17.70;65.50;;;;;;5110447;28;20528;-61
2023/03/17 07:51:26;;;;;;;12.27;3.28;;;17.60;65.50;;;;;;5109917;28;20107;-61
2023/03/17 07:53:59;;;;;;;14.05;3.45;;;17.70;65.60;;;;;;5110755;28;20082;-62
2023/03/17 07:56:26;;;;;;;15.63;3.38;;;17.60;65.70;;;;;;5112077;28;20095;-60
2023/03/17 07:58:53;;;;;;;12.80;3.17;;;17.70;65.30;;;;;;5109138;28;20063;-61
2023/03/17 08:01:19;;;;;;;15.82;3.50;;;17.80;65.40;;;;;;5110334;28;20454;-62
2023/03/17 08:03:46;;;;;;;12.05;3.58;;;17.80;64.90;;;;;;5107713;28;20071;-62
2023/03/17 08:06:13;;;;;;;9.50;3.22;;;17.70;65.00;;;;;;5111779;28;20094;-61
2023/03/17 08:08:39;;;;;;;13.45;3.50;;;17.60;65.40;;;;;;5110588;28;20074;-61
2023/03/17 08:11:06;;;;;;;14.90;3.63;;;17.60;65.20;;;;;;5110343;28;20232;-61
2023/03/17 08:13:33;;;;;;;15.55;3.97;;;17.70;65.10;;;;;;5110689;28;20071;-61
2023/03/17 08:15:59;;;;;;;13.65;3.90;;;17.60;65.20;;;;;;5111001;28;20066;-64
2023/03/17 08:18:26;;;;;;;12.85;3.60;;;17.60;65.10;;;;;;5110411;28;20095;-60
2023/03/17 08:20:53;;;;;;;13.73;3.70;;;17.60;65.10;;;;;;5106973;28;20079;-60
2023/03/17 08:23:20;;;;;;;19.88;4.57;;;17.60;65.00;;;;;;5109896;28;20079;-62
2023/03/17 08:25:47;;;;;;;21.65;5.18;;;17.60;64.40;;;;;;5110044;28;20151;-61
2023/03/17 08:28:15;;;;;;;15.98;4.10;;;17.50;64.20;;;;;;5110671;28;20075;-61
2023/03/17 08:30:43;;;;;;;12.90;3.47;;;17.50;64.20;;;;;;5109535;28;20412;-60
2023/03/17 08:33:10;;;;;;;12.57;3.65;;;17.40;64.00;;;;;;5110892;28;20079;-60
2023/03/17 08:35:36;;;;;;;12.85;3.85;;;17.40;63.90;;;;;;5110702;28;20603;-61
2023/03/17 08:38:03;;;;;;;17.23;4.45;;;17.30;63.90;;;;;;5109012;28;20087;-61
2023/03/17 08:40:29;;;;;;;15.55;4.25;;;17.40;63.90;;;;;;5109872;28;20102;-60
2023/03/17 08:42:56;;;;;;;11.57;3.85;;;17.30;62.80;;;;;;5110384;28;20090;-60
2023/03/17 08:45:22;;;;;;;10.63;3.63;;;17.00;62.90;;;;;;5109832;28;20560;-60
2023/03/17 08:47:49;;;;;;;14.45;4.53;;;17.00;63.00;;;;;;5077536;28;20101;-60
2023/03/17 08:50:19;;;;;;;22.50;4.10;;;16.90;63.20;;;;;;5108993;28;20094;-60
2023/03/17 08:52:47;;;;;;;14.40;3.78;;;16.90;62.90;;;;;;5107288;28;20090;-62
2023/03/17 08:55:15;;;;;;;15.93;3.72;;;16.90;62.70;;;;;;5109606;28;20645;-61
2023/03/17 08:57:43;;;;;;;15.13;4.90;;;16.80;62.20;;;;;;5110276;28;20178;-60
2023/03/17 09:00:13;;;;;;;12.77;3.75;;;16.90;62.40;;;;;;5108691;28;20140;-61
2023/03/17 09:02:42;;;;;;;17.13;4.05;;;16.90;62.90;;;;;;5109173;28;20161;-60
2023/03/17 09:05:13;;;;;;;17.02;3.60;;;17.00;62.30;;;;;;5110749;28;20102;-60
2023/03/17 09:07:40;;;;;;;10.88;3.38;;;17.00;61.90;;;;;;5110593;28;20087;-61
2023/03/17 09:10:09;;;;;;;10.38;3.38;;;16.90;61.70;;;;;;5109197;28;20481;-60
2023/03/17 09:12:37;;;;;;;13.82;3.10;;;16.90;61.90;;;;;;5106181;28;20114;-60
2023/03/17 09:15:04;;;;;;;18.15;3.65;;;16.80;61.40;;;;;;5109235;28;20188;-61
2023/03/17 09:17:31;;;;;;;10.73;2.97;;;16.70;61.20;;;;;;5110604;28;20078;-61
2023/03/17 09:19:58;;;;;;;12.43;2.95;;;16.70;62.60;;;;;;5109206;28;20083;-61
2023/03/17 09:22:25;;;;;;;12.13;2.95;;;16.60;61.20;;;;;;5109497;28;20425;-62
2023/03/17 09:24:52;;;;;;;9.25;2.85;;;16.40;61.20;;;;;;5109531;28;20128;-62
2023/03/17 09:27:18;;;;;;;10.73;3.00;;;16.40;61.20;;;;;;5108875;28;20569;-61
2023/03/17 09:29:44;;;;;;;14.05;2.83;;;16.30;61.00;;;;;;5109203;28;20080;-61
2023/03/17 09:32:11;;;;;;;11.15;2.80;;;16.30;60.60;;;;;;5108837;28;20163;-60
2023/03/17 09:34:37;;;;;;;11.25;2.90;;;16.40;61.20;;;;;;5110776;28;20063;-61
2023/03/17 09:37:04;;;;;;;9.52;2.90;;;16.40;59.70;;;;;;5109388;28;20193;-60
2023/03/17 09:39:30;;;;;;;8.95;1.95;;;16.30;59.40;;;;;;5109072;28;20536;-60
2023/03/17 09:42:37;;;;;;;11.52;2.40;;;16.40;58.20;;;;;;5079291;28;20067;-60
2023/03/17 09:45:31;;;;;;;5.80;2.28;;;16.40;57.50;;;;;;5107401;28;20099;-60
2023/03/17 09:47:58;;;;;;;8.63;2.33;;;16.30;57.20;;;;;;5107956;28;20083;-61
2023/03/17 09:50:47;;;;;;;8.07;2.58;;;16.30;57.30;;;;;;5108485;28;20095;-60
2023/03/17 09:53:38;;;;;;;9.85;3.00;;;16.40;56.80;;;;;;5107367;28;20086;-60
2023/03/17 09:56:12;;;;;;;7.97;2.83;;;16.40;57.10;;;;;;5105725;28;20087;-60
2023/03/17 09:58:43;;;;;;;6.90;2.47;;;16.50;56.60;;;;;;5109025;28;20074;-61
2023/03/17 10:01:11;;;;;;;10.07;2.92;;;16.50;57.10;;;;;;5108544;28;20064;-61
2023/03/17 10:03:38;;;;;;;12.13;3.47;;;16.40;57.20;;;;;;5109534;28;20092;-61
2023/03/17 10:06:23;;;;;;;13.07;3.20;;;16.50;57.70;;;;;;5109160;28;21582;-60
2023/03/17 10:09:16;;;;;;;8.65;2.40;;;16.50;57.50;;;;;;5108401;28;20459;-60
2023/03/17 10:11:46;;;;;;;9.57;3.30;;;16.40;57.40;;;;;;5061228;28;20116;-60
2023/03/17 10:14:18;;;;;;;9.25;3.35;;;16.30;58.10;;;;;;5103787;28;20075;-60
2023/03/17 10:17:00;;;;;;;12.18;3.25;;;16.30;58.20;;;;;;5102483;28;20151;-60
2023/03/17 10:19:32;;;;;;;11.82;2.80;;;16.20;58.40;;;;;;5101199;28;20518;-62
2023/03/17 10:22:37;;;;;;;13.32;4.00;;;16.00;58.50;;;;;;5108328;28;20469;-61
2023/03/17 10:25:31;;;;;;;11.95;4.38;;;16.00;58.80;;;;;;5105727;28;20124;-60
2023/03/17 10:28:30;;;;;;;12.63;4.88;;;16.10;59.40;;;;;;5103821;28;20132;-61
2023/03/17 10:31:27;;;;;;;22.50;6.00;;;16.10;60.00;;;;;;5077752;28;20107;-61
2023/03/17 10:33:56;;;;;;;16.48;6.32;;;16.10;59.50;;;;;;5009713;28;20081;-60
2023/03/17 10:36:38;;;;;;;16.45;5.70;;;16.10;59.90;;;;;;5006356;28;20166;-61
2023/03/17 10:39:06;;;;;;;18.02;6.07;;;16.00;60.00;;;;;;5006605;28;20216;-61
2023/03/17 10:41:38;;;;;;;19.08;6.55;;;15.90;61.10;;;;;;5006419;28;20077;-60
2023/03/17 10:44:20;;;;;;;20.88;7.20;;;15.60;61.30;;;;;;5012400;28;20078;-61
2023/03/17 10:46:55;;;;;;;18.73;7.50;;;15.30;61.80;;;;;;5016180;28;20078;-60
2023/03/17 10:49:23;;;;;;;20.92;8.68;;;15.40;61.80;;;;;;5013103;28;20097;-59
2023/03/17 10:51:52;;;;;;;23.80;8.57;;;15.50;61.80;;;;;;5013039;28;20082;-60
2023/03/17 10:54:21;;;;;;;24.20;8.52;;;15.60;62.10;;;;;;5012803;28;20742;-61
2023/03/17 10:56:55;;;;;;;19.70;6.97;;;15.60;62.40;;;;;;5011752;28;20196;-62
2023/03/17 10:59:31;;;;;;;16.75;6.05;;;15.60;62.10;;;;;;5011761;28;20129;-62
2023/03/17 11:02:06;;;;;;;18.85;6.57;;;15.50;63.50;;;;;;5013143;28;20070;-60
2023/03/17 11:04:41;;;;;;;18.40;6.32;;;15.40;63.10;;;;;;5009946;28;20084;-61
2023/03/17 11:07:20;;;;;;;13.02;4.80;;;15.20;63.80;;;;;;5013224;28;20105;-63
2023/03/17 11:09:51;;;;;;;11.25;5.15;;;15.10;64.00;;;;;;5041333;28;20574;-61
2023/03/17 11:12:27;;;;;;;11.27;5.07;;;15.20;63.40;;;;;;5112673;28;20186;-59
2023/03/17 11:15:02;;;;;;;16.58;6.03;;;15.20;63.00;;;;;;5114186;28;20087;-60
2023/03/17 11:17:38;;;;;;;13.98;5.82;;;15.20;62.80;;;;;;5114634;28;20550;-61
2023/03/17 11:20:05;;;;;;;14.82;5.38;;;15.10;63.20;;;;;;5114012;28;20148;-60
2023/03/17 11:22:41;;;;;;;;;;;15.10;64.20;;;;;;5112970;28;20089;-59
2023/03/17 11:25:18;;;;;;;14.80;4.80;;;15.10;63.60;;;;;;5113484;28;20724;-60
2023/03/17 11:27:48;;;;;;;;;;;15.20;63.50;;;;;;5114668;28;20107;-61
2023/03/17 11:30:20;;;;;;;13.07;4.85;;;15.20;63.90;;;;;;5114726;28;20351;-61
2023/03/17 11:32:55;;;;;;;12.45;4.05;;;15.10;64.10;;;;;;5114671;28;20080;-61
2023/03/17 11:35:33;;;;;;;19.27;4.18;;;15.10;63.90;;;;;;5114369;28;20110;-59
2023/03/17 11:38:23;;;;;;;14.65;4.15;;;15.10;64.10;;;;;;5114486;28;20170;-59
2023/03/17 11:40:59;;;;;;;12.70;3.83;;;15.00;63.70;;;;;;5111747;28;20141;-61
2023/03/17 11:43:50;;;;;;;11.63;4.13;;;14.90;64.10;;;;;;5111321;28;20093;-61
2023/03/17 11:46:35;;;;;;;11.55;3.70;;;14.90;64.00;;;;;;5114312;28;20079;-60
2023/03/17 11:49:16;;;;;;;10.52;3.78;;;14.90;63.70;;;;;;5113671;28;20079;-59
2023/03/17 11:51:44;;;;;;;12.32;4.07;;;14.90;64.40;;;;;;5114491;28;20471;-60
2023/03/17 11:54:13;;;;;;;17.23;4.22;;;14.80;64.20;;;;;;5111751;28;20060;-62
2023/03/17 11:57:00;;;;;;;19.40;4.63;;;14.80;64.50;;;;;;5108374;28;20440;-60
2023/03/17 11:59:40;;;;;;;13.50;4.10;;;14.60;64.00;;;;;;5111366;28;20102;-60
2023/03/17 12:02:17;;;;;;;13.65;4.47;;;14.50;64.70;;;;;;5107988;28;20072;-60
2023/03/17 12:05:12;;;;;;;16.77;5.03;;;14.50;64.90;;;;;;5107242;28;20080;-62
2023/03/17 12:07:51;;;;;;;14.77;4.78;;;14.50;65.10;;;;;;5107289;28;20099;-59
2023/03/17 12:10:21;;;;;;;20.63;5.03;;;14.30;65.70;;;;;;5109497;28;20111;-59
2023/03/17 12:13:00;;;;;;;16.10;4.57;;;14.20;66.60;;;;;;5124851;22;20130;-62
2023/03/17 12:15:52;;;;;;;16.42;3.97;;;14.20;66.60;;;;;;5074333;28;20076;-60
2023/03/17 12:18:31;;;;;;;12.00;4.40;;;14.30;66.80;;;;;;5074989;28;20081;-59
2023/03/17 12:21:04;;;;;;;20.70;4.95;;;14.50;67.50;;;;;;5081786;28;20096;-59
2023/03/17 12:23:46;;;;;;;13.45;4.32;;;14.40;67.30;;;;;;5091132;28;20077;-61
2023/03/17 12:26:42;;;;;;;17.02;4.85;;;14.20;67.40;;;;;;5089653;28;20085;-60
2023/03/17 12:29:30;;;;;;;19.08;3.80;;;14.20;67.90;;;;;;5082227;28;20134;-61
2023/03/17 12:32:41;;;;;;;19.73;4.80;;;14.10;68.30;;;;;;5090115;28;20169;-60
2023/03/17 12:35:28;;;;;;;11.63;4.22;;;14.20;68.70;;;;;;5089941;28;20186;-62
2023/03/17 12:37:57;;;;;;;22.25;4.65;;;14.20;69.00;;;;;;5053573;28;20089;-63
2023/03/17 12:40:45;;;;;;;16.90;4.40;;;14.20;68.60;;;;;;5090262;28;20065;-60
2023/03/17 12:43:27;;;;;;;14.57;4.70;;;14.20;68.10;;;;;;5089201;28;20547;-61
2023/03/17 12:46:07;;;;;;;14.88;3.88;;;14.10;68.20;;;;;;5085118;28;20084;-60
2023/03/17 12:48:34;;;;;;;14.10;4.35;;;14.10;68.70;;;;;;5089393;28;20544;-61
2023/03/17 12:51:25;;;;;;;14.95;4.05;;;14.00;68.70;;;;;;5088388;28;20069;-60
2023/03/17 12:53:52;;;;;;;15.60;4.55;;;14.10;68.60;;;;;;5086723;28;20076;-61
2023/03/17 12:56:30;;;;;;;13.63;4.10;;;14.10;69.50;;;;;;5089464;28;20072;-59